Time;durP1;ratioP1;P1;durP2;ratioP2;P2;SDS_P1;SDS_P2;PMS_P1;PMS_P2;Temp;Humidity;BMP_temperature;BMP_pressure;BME280_temperature;BME280_humidity;BME280_pressure;Samples;Min_cycle;Max_cycle;Signal;HPM_P1;HPM_P2
2021/04/27 00:02:03;;;;;;;8.07;4.80;;;7.30;46.20;;;;;;5112015;28;20207;-88
2021/04/27 00:04:31;;;;;;;6.77;4.80;;;7.40;46.30;;;;;;5112250;28;20230;-88
2021/04/27 00:06:58;;;;;;;8.80;4.60;;;7.30;46.10;;;;;;5114101;28;20220;-88
2021/04/27 00:09:24;;;;;;;10.03;4.83;;;7.30;46.10;;;;;;5117246;28;20196;-90
2021/04/27 00:11:50;;;;;;;7.97;4.90;;;7.20;46.10;;;;;;5113556;28;20206;-90
2021/04/27 00:14:17;;;;;;;8.03;4.43;;;7.30;46.30;;;;;;5103828;28;20265;-88
2021/04/27 00:16:43;;;;;;;6.50;4.63;;;7.20;46.10;;;;;;5115167;28;20291;-88
2021/04/27 00:19:10;;;;;;;6.07;4.57;;;7.20;46.10;;;;;;5108244;27;20712;-87
2021/04/27 00:21:38;;;;;;;8.37;4.27;;;7.10;46.10;;;;;;5109369;28;20610;-89
2021/04/27 00:24:04;;;;;;;7.87;4.03;;;7.00;47.10;;;;;;5117855;27;20265;-88
2021/04/27 00:26:31;;;;;;;7.80;4.23;;;7.00;45.90;;;;;;5122341;28;20212;-89
2021/04/27 00:28:58;;;;;;;8.27;4.23;;;6.80;45.70;;;;;;5120267;28;20254;-88
2021/04/27 00:31:27;;;;;;;8.33;4.07;;;6.50;45.50;;;;;;5112820;28;20199;-89
2021/04/27 00:33:53;;;;;;;6.33;3.90;;;6.30;45.40;;;;;;5109667;28;20761;-88
2021/04/27 00:36:20;;;;;;;6.77;3.90;;;6.20;45.80;;;;;;5113271;27;20249;-86
2021/04/27 00:38:47;;;;;;;7.63;4.10;;;6.20;48.40;;;;;;5113439;28;20302;-86
2021/04/27 00:41:14;;;;;;;6.13;3.73;;;6.20;46.80;;;;;;5114641;28;20192;-86
2021/04/27 00:43:41;;;;;;;7.60;4.23;;;6.10;46.80;;;;;;5110433;28;20219;-86
2021/04/27 00:46:08;;;;;;;8.27;4.40;;;6.10;47.50;;;;;;5118009;28;20215;-86
2021/04/27 00:48:34;;;;;;;8.63;4.27;;;6.00;48.10;;;;;;5113282;28;20224;-87
2021/04/27 00:51:01;;;;;;;6.13;4.13;;;6.00;48.90;;;;;;5117372;28;20541;-86
2021/04/27 00:53:28;;;;;;;5.60;3.80;;;5.90;48.20;;;;;;5108550;28;20232;-87
2021/04/27 00:55:55;;;;;;;6.90;4.03;;;5.80;48.60;;;;;;5105840;28;20203;-87
2021/04/27 00:58:26;;;;;;;8.37;3.90;;;5.80;48.60;;;;;;5107736;28;20219;-87
2021/04/27 01:00:52;;;;;;;5.60;3.77;;;5.80;48.80;;;;;;5104568;28;20223;-87
2021/04/27 01:03:19;;;;;;;9.57;4.17;;;5.80;48.90;;;;;;5110076;28;20226;-87
2021/04/27 01:05:46;;;;;;;5.47;3.87;;;5.80;49.20;;;;;;5117984;27;20234;-86
2021/04/27 01:08:18;;;;;;;5.23;4.23;;;5.70;49.20;;;;;;5113184;28;20222;-86
2021/04/27 01:10:52;;;;;;;6.53;4.10;;;5.70;49.80;;;;;;5113150;28;20219;-87
2021/04/27 01:13:26;;;;;;;8.73;4.20;;;5.70;50.60;;;;;;5115484;28;20226;-87
2021/04/27 01:15:52;;;;;;;6.57;4.70;;;5.70;49.80;;;;;;5116412;28;20529;-86
2021/04/27 01:18:20;;;;;;;6.77;4.27;;;5.80;50.30;;;;;;5111901;28;20259;-86
2021/04/27 01:20:49;;;;;;;5.90;4.43;;;5.70;49.80;;;;;;5116068;28;20200;-86
2021/04/27 01:23:45;;;;;;;5.37;3.83;;;5.70;50.90;;;;;;5117125;28;20216;-86
2021/04/27 01:26:19;;;;;;;4.87;4.03;;;5.60;50.70;;;;;;5116602;28;20216;-86
2021/04/27 01:28:47;;;;;;;7.93;4.30;;;5.60;53.60;;;;;;5107574;28;20224;-86
2021/04/27 01:31:13;;;;;;;6.20;4.40;;;5.70;52.10;;;;;;5117068;28;20201;-85
2021/04/27 01:33:40;;;;;;;5.87;4.17;;;5.60;52.10;;;;;;5114968;27;20682;-85
2021/04/27 01:36:08;;;;;;;7.80;4.77;;;5.70;51.90;;;;;;5113853;28;20614;-85
2021/04/27 01:38:35;;;;;;;8.53;5.00;;;5.60;51.50;;;;;;5117172;28;20228;-87
2021/04/27 01:41:01;;;;;;;6.00;4.53;;;5.50;52.30;;;;;;5115959;28;20259;-86
2021/04/27 01:43:28;;;;;;;7.40;4.17;;;5.50;52.90;;;;;;5114570;28;20216;-87
2021/04/27 01:46:01;;;;;;;6.90;4.50;;;5.40;52.50;;;;;;5106498;28;20219;-86
2021/04/27 01:48:28;;;;;;;8.73;4.47;;;5.30;52.50;;;;;;5102644;28;20221;-85
2021/04/27 01:50:55;;;;;;;6.40;4.20;;;5.30;54.00;;;;;;5110192;28;20202;-88
2021/04/27 01:53:22;;;;;;;6.50;4.70;;;5.30;54.60;;;;;;5112632;28;20223;-85
2021/04/27 01:55:49;;;;;;;7.37;5.07;;;5.40;55.60;;;;;;5112723;28;20239;-86
2021/04/27 01:58:15;;;;;;;6.33;4.53;;;5.40;53.80;;;;;;5108265;28;20710;-85
2021/04/27 02:00:42;;;;;;;9.43;4.70;;;5.20;54.00;;;;;;5110068;28;20200;-85
2021/04/27 02:03:09;;;;;;;5.70;4.50;;;5.20;54.80;;;;;;5114695;28;20220;-85
2021/04/27 02:05:36;;;;;;;11.20;4.70;;;5.10;55.20;;;;;;5113833;28;20226;-85
2021/04/27 02:08:03;;;;;;;8.93;4.70;;;5.00;55.30;;;;;;5105138;28;20713;-85
2021/04/27 02:10:29;;;;;;;8.30;4.73;;;5.00;56.10;;;;;;5116592;28;20188;-86
2021/04/27 02:13:02;;;;;;;7.50;4.70;;;4.90;56.00;;;;;;5116197;28;20219;-86
2021/04/27 02:15:29;;;;;;;10.50;5.23;;;4.90;56.40;;;;;;5109495;28;20192;-86
2021/04/27 02:18:02;;;;;;;8.73;5.43;;;4.90;57.40;;;;;;5112472;28;20216;-87
2021/04/27 02:20:30;;;;;;;7.53;5.47;;;4.90;57.20;;;;;;5115304;28;20242;-85
2021/04/27 02:22:58;;;;;;;8.27;4.73;;;4.80;57.90;;;;;;5114902;28;20228;-85
2021/04/27 02:25:25;;;;;;;6.00;4.83;;;4.90;59.00;;;;;;5107090;28;20604;-85
2021/04/27 02:27:52;;;;;;;6.90;5.20;;;5.00;60.00;;;;;;5106239;28;20219;-84
2021/04/27 02:30:20;;;;;;;9.07;5.07;;;5.10;57.60;;;;;;5116253;28;20533;-84
2021/04/27 02:32:47;;;;;;;7.80;4.83;;;5.10;57.50;;;;;;5112568;28;20700;-84
2021/04/27 02:35:16;;;;;;;7.67;5.20;;;5.00;58.40;;;;;;5114957;28;20605;-84
2021/04/27 02:37:45;;;;;;;10.77;5.53;;;5.20;58.50;;;;;;5109280;28;20230;-85
2021/04/27 02:40:15;;;;;;;8.83;5.40;;;5.20;58.40;;;;;;5112933;28;20230;-84
2021/04/27 02:42:48;;;;;;;7.40;5.47;;;5.00;58.80;;;;;;5114829;28;20240;-85
2021/04/27 02:45:15;;;;;;;9.33;5.30;;;5.10;59.00;;;;;;5118047;28;20232;-84
2021/04/27 02:47:42;;;;;;;10.10;5.50;;;5.00;59.40;;;;;;5107253;28;20227;-85
2021/04/27 02:50:11;;;;;;;9.90;5.43;;;5.00;59.80;;;;;;5114755;28;20196;-84
2021/04/27 02:52:38;;;;;;;10.87;5.80;;;4.90;59.90;;;;;;5114390;28;20310;-84
2021/04/27 02:55:06;;;;;;;8.67;5.60;;;4.80;60.80;;;;;;5109481;28;20203;-85
2021/04/27 02:57:33;;;;;;;16.23;6.00;;;4.80;61.30;;;;;;5118247;28;20231;-86
2021/04/27 02:59:59;;;;;;;9.63;5.60;;;4.70;62.00;;;;;;5116955;28;20188;-86
2021/04/27 03:02:27;;;;;;;7.10;5.60;;;4.80;63.10;;;;;;5124730;28;20220;-86
2021/04/27 03:04:53;;;;;;;8.10;6.13;;;4.70;62.70;;;;;;5121583;28;20196;-87
2021/04/27 03:07:19;;;;;;;9.10;6.03;;;4.80;63.40;;;;;;5128897;28;20219;-86
2021/04/27 03:09:46;;;;;;;9.13;6.07;;;4.70;63.20;;;;;;5120048;28;20206;-84
2021/04/27 03:12:13;;;;;;;7.47;5.73;;;4.70;63.30;;;;;;5113004;28;20292;-84
2021/04/27 03:14:40;;;;;;;7.30;5.83;;;4.70;63.20;;;;;;5106814;28;20582;-85
2021/04/27 03:17:06;;;;;;;7.63;6.07;;;4.70;64.40;;;;;;5109579;28;20196;-85
2021/04/27 03:19:32;;;;;;;11.53;6.07;;;4.70;63.00;;;;;;5108013;28;20196;-84
2021/04/27 03:21:58;;;;;;;7.50;6.07;;;4.70;63.80;;;;;;5113679;28;20583;-85
2021/04/27 03:24:25;;;;;;;11.20;5.90;;;4.60;63.60;;;;;;5107392;28;20210;-87
2021/04/27 03:26:51;;;;;;;7.43;5.47;;;4.60;65.20;;;;;;5120155;28;20307;-84
2021/04/27 03:29:18;;;;;;;7.80;5.60;;;4.60;63.50;;;;;;5107573;28;20228;-85
2021/04/27 03:31:45;;;;;;;9.30;5.70;;;4.50;63.70;;;;;;5112246;28;20200;-84
2021/04/27 03:34:11;;;;;;;8.70;6.03;;;4.50;64.30;;;;;;5112732;28;20242;-84
2021/04/27 03:36:38;;;;;;;8.53;5.97;;;4.50;64.30;;;;;;5109776;28;20211;-84
2021/04/27 03:39:04;;;;;;;8.83;5.70;;;4.40;64.60;;;;;;5112780;28;20220;-87
2021/04/27 03:41:31;;;;;;;13.47;6.07;;;4.40;64.90;;;;;;5109553;28;20199;-86
2021/04/27 03:43:57;;;;;;;8.90;5.77;;;4.50;64.60;;;;;;5116800;28;20619;-84
2021/04/27 03:46:25;;;;;;;11.20;5.40;;;4.50;63.60;;;;;;5115104;28;20224;-84
2021/04/27 03:48:51;;;;;;;7.47;5.00;;;4.50;63.80;;;;;;5110348;28;20224;-85
2021/04/27 03:51:18;;;;;;;8.47;5.80;;;4.40;63.50;;;;;;5116234;28;20200;-85
2021/04/27 03:53:45;;;;;;;10.33;5.80;;;4.50;65.60;;;;;;5112179;28;20230;-85
2021/04/27 03:56:11;;;;;;;6.70;5.17;;;4.50;65.00;;;;;;5120052;28;20530;-85
2021/04/27 03:58:39;;;;;;;8.17;5.53;;;4.40;64.50;;;;;;5119598;28;20232;-84
2021/04/27 04:01:06;;;;;;;9.50;6.00;;;4.40;64.40;;;;;;5116101;28;20283;-85
2021/04/27 04:03:33;;;;;;;7.63;6.00;;;4.40;63.60;;;;;;5117012;28;20224;-85
2021/04/27 04:06:00;;;;;;;10.53;5.90;;;4.30;64.30;;;;;;5117926;28;20223;-85
2021/04/27 04:08:26;;;;;;;7.97;5.50;;;4.30;64.40;;;;;;5107508;28;20220;-86
2021/04/27 04:10:53;;;;;;;7.87;5.50;;;4.20;64.70;;;;;;5119089;28;20188;-87
2021/04/27 04:13:19;;;;;;;8.57;5.53;;;4.20;65.70;;;;;;5115345;28;20249;-85
2021/04/27 04:15:46;;;;;;;10.40;6.03;;;4.30;65.50;;;;;;5116592;28;20229;-86
2021/04/27 04:18:12;;;;;;;7.77;5.17;;;4.40;65.80;;;;;;5117538;27;20895;-85
2021/04/27 04:20:40;;;;;;;12.87;5.23;;;4.30;64.40;;;;;;5120496;28;20651;-85
2021/04/27 04:23:06;;;;;;;8.57;5.77;;;4.30;64.40;;;;;;5115027;28;20246;-86
2021/04/27 04:25:37;;;;;;;9.53;5.73;;;4.20;65.00;;;;;;5114598;28;20196;-85
2021/04/27 04:28:04;;;;;;;9.10;5.83;;;4.20;64.80;;;;;;5120824;27;20215;-85
2021/04/27 04:30:30;;;;;;;8.87;5.90;;;4.20;65.80;;;;;;5116059;28;20212;-86
2021/04/27 04:32:56;;;;;;;8.93;5.77;;;4.20;64.50;;;;;;5116296;28;20215;-86
2021/04/27 04:35:25;;;;;;;10.13;6.27;;;4.20;66.30;;;;;;5112903;28;20269;-86
2021/04/27 04:37:52;;;;;;;8.70;5.57;;;4.20;64.30;;;;;;5105372;28;20253;-85
2021/04/27 04:40:19;;;;;;;8.30;5.80;;;4.20;64.30;;;;;;5101427;28;20205;-85
2021/04/27 04:42:46;;;;;;;11.03;5.83;;;4.20;64.90;;;;;;5108803;28;21366;-85
2021/04/27 04:45:14;;;;;;;13.23;6.07;;;4.20;64.60;;;;;;5114495;28;20336;-84
2021/04/27 04:47:41;;;;;;;10.10;5.67;;;4.30;64.20;;;;;;5109435;28;20269;-86
2021/04/27 04:50:09;;;;;;;10.37;5.60;;;4.40;63.70;;;;;;5114917;28;20636;-83
2021/04/27 04:52:36;;;;;;;10.43;5.50;;;4.40;63.60;;;;;;5113008;28;20227;-82
2021/04/27 04:55:05;;;;;;;10.53;5.83;;;4.40;63.00;;;;;;5115373;28;20253;-82
2021/04/27 04:57:31;;;;;;;7.73;5.70;;;4.40;62.30;;;;;;5110650;28;20227;-86
2021/04/27 04:59:58;;;;;;;9.63;5.73;;;4.50;62.50;;;;;;5111129;28;20200;-82
2021/04/27 05:02:24;;;;;;;10.13;5.53;;;4.60;62.80;;;;;;5111847;28;20273;-82
2021/04/27 05:04:51;;;;;;;7.90;5.70;;;4.60;61.20;;;;;;5111332;28;20196;-86
2021/04/27 05:07:17;;;;;;;12.27;5.77;;;4.70;60.90;;;;;;5112538;28;20766;-82
2021/04/27 05:09:43;;;;;;;8.70;5.50;;;4.70;60.70;;;;;;5111307;28;20192;-82
2021/04/27 05:12:11;;;;;;;10.47;5.53;;;4.70;61.00;;;;;;5109357;28;20196;-82
2021/04/27 05:14:39;;;;;;;11.63;5.97;;;4.80;60.30;;;;;;5106935;28;20911;-82
2021/04/27 05:17:06;;;;;;;11.23;5.87;;;4.80;60.10;;;;;;5115019;28;20227;-82
2021/04/27 05:19:33;;;;;;;10.07;5.70;;;4.90;60.60;;;;;;5110293;28;20679;-85
2021/04/27 05:22:01;;;;;;;10.07;6.07;;;4.90;59.80;;;;;;5110608;28;20295;-84
2021/04/27 05:24:28;;;;;;;10.83;5.77;;;5.10;59.20;;;;;;5115890;28;20214;-85
2021/04/27 05:26:54;;;;;;;8.57;5.70;;;5.10;60.00;;;;;;5104359;28;20219;-83
2021/04/27 05:29:22;;;;;;;10.20;5.77;;;5.30;59.60;;;;;;5116621;28;20223;-83
2021/04/27 05:31:48;;;;;;;12.83;6.57;;;5.40;58.30;;;;;;5105435;28;20218;-85
2021/04/27 05:34:15;;;;;;;10.50;5.37;;;5.60;57.20;;;;;;5106113;28;20227;-87
2021/04/27 05:36:42;;;;;;;8.27;5.57;;;5.60;56.80;;;;;;5114182;28;20215;-92
2021/04/27 05:39:08;;;;;;;6.73;5.47;;;5.80;56.20;;;;;;5115696;28;20232;-89
2021/04/27 05:41:35;;;;;;;10.80;5.43;;;6.40;53.20;;;;;;5110423;28;20204;-87
2021/04/27 05:44:01;;;;;;;14.43;5.50;;;7.20;51.20;;;;;;5104727;28;20216;-87
2021/04/27 05:46:28;;;;;;;11.83;5.37;;;7.80;46.50;;;;;;5102965;28;20224;-87
2021/04/27 05:48:55;;;;;;;12.50;5.13;;;8.10;46.80;;;;;;5119008;28;20227;-86
2021/04/27 05:51:23;;;;;;;10.67;5.27;;;8.70;46.60;;;;;;5119904;28;20192;-86
2021/04/27 05:53:50;;;;;;;7.70;5.53;;;9.20;42.50;;;;;;5108713;28;20603;-87
2021/04/27 05:56:16;;;;;;;7.37;5.17;;;9.00;42.10;;;;;;5120138;28;20199;-86
2021/04/27 05:58:44;;;;;;;8.23;5.43;;;8.70;43.60;;;;;;5120894;28;20219;-87
2021/04/27 06:01:10;;;;;;;10.60;5.07;;;8.40;44.90;;;;;;5110627;28;20204;-86
2021/04/27 06:03:44;;;;;;;8.20;5.27;;;8.20;46.90;;;;;;5106431;28;20232;-89
2021/04/27 06:06:11;;;;;;;10.47;5.20;;;8.10;46.80;;;;;;5112505;28;20219;-92
2021/04/27 06:08:38;;;;;;;11.07;5.23;;;8.30;47.00;;;;;;5113339;28;20224;-91
2021/04/27 06:11:06;;;;;;;6.40;5.40;;;8.60;45.00;;;;;;5102201;28;20200;-93
2021/04/27 06:13:41;;;;;;;9.00;5.17;;;8.00;46.80;;;;;;5107039;28;20259;-93
2021/04/27 06:19:34;;;;;;;10.15;5.55;;;9.20;42.30;;;;;;5103533;28;20204;-88
2021/04/27 06:39:12;;;;;;;12.83;5.70;;;8.90;45.70;;;;;;5870588;22;20283;-88
2021/04/27 06:41:39;;;;;;;16.10;5.73;;;8.80;46.90;;;;;;5080511;28;20201;-87
2021/04/27 06:44:05;;;;;;;7.73;5.87;;;9.00;45.30;;;;;;5079760;28;20193;-89
2021/04/27 06:46:32;;;;;;;7.63;6.13;;;9.20;44.40;;;;;;5077395;28;20221;-89
2021/04/27 06:48:59;;;;;;;8.02;5.93;;;9.10;45.20;;;;;;5073317;28;20226;-91
2021/04/27 06:51:26;;;;;;;8.67;5.63;;;8.80;47.40;;;;;;5066725;28;20197;-89
2021/04/27 06:53:53;;;;;;;11.00;5.97;;;8.80;47.40;;;;;;5077552;28;20225;-87
2021/04/27 06:56:24;;;;;;;7.27;5.43;;;9.10;45.50;;;;;;5073055;28;20193;-89
2021/04/27 06:58:50;;;;;;;11.83;6.20;;;9.40;44.60;;;;;;5077492;28;20224;-88
2021/04/27 07:01:17;;;;;;;7.10;5.60;;;9.80;43.30;;;;;;5074719;28;20201;-88
2021/04/27 07:03:47;;;;;;;12.00;6.17;;;10.20;40.30;;;;;;5075325;28;20263;-91
2021/04/27 07:06:17;;;;;;;9.63;6.18;;;10.30;40.00;;;;;;5075232;28;20225;-90
2021/04/27 07:08:44;;;;;;;11.68;5.97;;;10.50;39.60;;;;;;5065807;28;20245;-90
2021/04/27 07:11:11;;;;;;;9.35;5.80;;;10.50;39.30;;;;;;5068820;28;20680;-88
2021/04/27 07:13:38;;;;;;;11.02;6.00;;;10.50;39.30;;;;;;5091192;28;20232;-88
2021/04/27 07:16:06;;;;;;;8.30;6.07;;;10.10;40.60;;;;;;5077225;28;20193;-88
2021/04/27 07:18:32;;;;;;;11.13;5.93;;;10.40;41.60;;;;;;5082367;28;20225;-89
2021/04/27 07:21:00;;;;;;;10.15;6.13;;;11.10;38.00;;;;;;5094206;28;20220;-90
2021/04/27 07:23:26;;;;;;;9.02;6.05;;;11.40;37.30;;;;;;5099624;28;20221;-92
2021/04/27 07:25:53;;;;;;;10.95;5.72;;;11.20;37.40;;;;;;5089036;28;20683;-88
2021/04/27 07:28:20;;;;;;;8.45;5.95;;;11.00;37.80;;;;;;5082559;28;20229;-89
2021/04/27 07:30:47;;;;;;;10.63;6.25;;;10.40;39.90;;;;;;5076555;28;20206;-89
2021/04/27 07:33:22;;;;;;;9.15;5.88;;;10.90;38.50;;;;;;5074447;28;20221;-88
2021/04/27 07:36:05;;;;;;;8.05;6.13;;;11.20;38.00;;;;;;5099871;28;21140;-88
2021/04/27 07:38:31;;;;;;;7.70;5.78;;;11.40;37.00;;;;;;5081314;28;20232;-89
2021/04/27 07:40:58;;;;;;;8.95;5.97;;;11.50;36.90;;;;;;5084515;28;20197;-88
2021/04/27 07:43:24;;;;;;;9.15;6.43;;;11.50;37.00;;;;;;5079936;28;20217;-89
2021/04/27 07:45:51;;;;;;;10.77;6.43;;;11.50;36.80;;;;;;5082648;28;20264;-88
2021/04/27 07:48:19;;;;;;;11.32;6.30;;;11.70;38.20;;;;;;5087455;28;20237;-88
2021/04/27 07:50:47;;;;;;;8.38;5.97;;;11.80;36.40;;;;;;5075822;28;20256;-89
2021/04/27 07:53:13;;;;;;;8.55;6.40;;;12.00;36.10;;;;;;5105079;27;20224;-88
2021/04/27 07:55:41;;;;;;;13.93;6.25;;;11.30;37.60;;;;;;5078652;28;20220;-89
2021/04/27 07:58:27;;;;;;;10.38;6.10;;;11.70;37.30;;;;;;5090539;28;20287;-92
2021/04/27 08:06:57;;;;;;;9.10;6.07;;;12.00;36.20;;;;;;5080499;28;20221;-92
2021/04/27 08:09:23;;;;;;;8.57;6.25;;;12.10;36.10;;;;;;5079590;28;20244;-90
2021/04/27 08:15:20;;;;;;;9.13;6.53;;;12.00;36.80;;;;;;5082549;28;20351;-91
2021/04/27 08:18:38;;;;;;;9.60;6.80;;;11.90;36.50;;;;;;5086803;28;20712;-91
2021/04/27 08:21:14;;;;;;;10.70;6.43;;;12.10;36.00;;;;;;5068613;28;20266;-90
2021/04/27 08:23:41;;;;;;;9.75;6.07;;;12.10;36.60;;;;;;5089489;28;20216;-89
2021/04/27 08:26:11;;;;;;;10.43;6.38;;;12.10;36.50;;;;;;5090773;28;20208;-91
2021/04/27 08:28:37;;;;;;;15.65;6.82;;;12.50;36.50;;;;;;5068574;28;20225;-93
2021/04/27 08:31:04;;;;;;;9.40;6.40;;;12.90;34.80;;;;;;5065019;28;20193;-92
2021/04/27 08:33:30;;;;;;;8.80;6.63;;;13.40;33.60;;;;;;5068345;28;20765;-93
2021/04/27 08:35:56;;;;;;;10.70;6.55;;;13.70;33.10;;;;;;5060931;28;20627;-92
2021/04/27 08:38:24;;;;;;;11.88;7.05;;;13.40;33.20;;;;;;5065117;28;20229;-92
2021/04/27 08:40:50;;;;;;;11.18;6.50;;;13.40;33.50;;;;;;5063285;28;20201;-93
2021/04/27 08:43:17;;;;;;;13.00;6.43;;;13.70;33.20;;;;;;5070241;28;20605;-92
2021/04/27 08:45:44;;;;;;;9.88;6.65;;;14.40;31.70;;;;;;5073917;28;20198;-93
2021/04/27 08:48:12;;;;;;;12.60;6.63;;;14.40;32.70;;;;;;5065044;28;20324;-92
2021/04/27 08:50:39;;;;;;;9.38;6.82;;;14.20;31.70;;;;;;5062636;28;20201;-93
2021/04/27 08:53:07;;;;;;;7.75;6.88;;;15.20;29.40;;;;;;5063703;28;20252;-92
2021/04/27 08:55:34;;;;;;;9.45;6.55;;;15.60;29.00;;;;;;5059003;28;20228;-91
2021/04/27 08:58:03;;;;;;;7.53;6.40;;;16.10;28.80;;;;;;5056903;28;20639;-91
2021/04/27 09:00:38;;;;;;;9.38;6.70;;;17.80;26.70;;;;;;5068934;28;20711;-90
2021/04/27 09:03:07;;;;;;;12.00;7.03;;;18.30;24.80;;;;;;5070258;28;20221;-87
2021/04/27 09:05:36;;;;;;;7.88;5.63;;;19.90;22.40;;;;;;5075898;28;20201;-89
2021/04/27 09:08:05;;;;;;;11.00;6.85;;;21.20;20.70;;;;;;5068089;28;20236;-85
2021/04/27 09:10:39;;;;;;;9.55;6.60;;;20.60;21.40;;;;;;5067958;28;20211;-88
2021/04/27 09:13:11;;;;;;;7.55;6.05;;;19.50;22.40;;;;;;5065137;28;20217;-85
2021/04/27 09:15:43;;;;;;;11.18;6.22;;;20.90;21.00;;;;;;5070518;28;20207;-83
2021/04/27 09:18:27;;;;;;;8.70;6.53;;;22.30;19.00;;;;;;5071650;28;20229;-84
2021/04/27 09:20:58;;;;;;;9.05;6.47;;;23.40;17.20;;;;;;5070176;28;20211;-86
2021/04/27 09:23:28;;;;;;;11.43;6.65;;;24.10;16.40;;;;;;5069910;28;20321;-88
2021/04/27 09:26:10;;;;;;;9.15;6.43;;;23.90;16.50;;;;;;5075107;28;20207;-87
2021/04/27 09:28:38;;;;;;;11.55;7.25;;;24.30;16.00;;;;;;5066964;28;20299;-86
2021/04/27 09:31:22;;;;;;;9.18;6.95;;;24.10;16.00;;;;;;5067359;28;20189;-86
2021/04/27 09:33:50;;;;;;;8.30;6.88;;;24.20;15.90;;;;;;5075887;28;20236;-86
2021/04/27 09:36:21;;;;;;;13.55;7.13;;;20.20;20.00;;;;;;5069521;28;20200;-81
2021/04/27 09:38:47;;;;;;;14.05;6.32;;;20.80;20.40;;;;;;5087972;28;20741;-83
2021/04/27 09:41:15;;;;;;;9.23;7.10;;;21.80;19.30;;;;;;5079909;28;20201;-84
2021/04/27 09:43:45;;;;;;;10.65;6.88;;;21.80;18.40;;;;;;5076329;28;20212;-84
2021/04/27 09:46:14;;;;;;;7.95;5.95;;;22.80;17.70;;;;;;5074800;28;20234;-84
2021/04/27 09:49:00;;;;;;;9.35;6.93;;;23.50;17.30;;;;;;5077441;28;20232;-83
2021/04/27 09:51:35;;;;;;;11.60;7.00;;;23.70;16.60;;;;;;5087516;28;20200;-83
2021/04/27 09:54:07;;;;;;;11.80;6.97;;;24.50;15.80;;;;;;5066939;28;20216;-87
2021/04/27 09:56:40;;;;;;;9.50;6.97;;;24.20;16.90;;;;;;5079050;28;20193;-87
2021/04/27 09:59:09;;;;;;;10.73;6.90;;;22.00;18.20;;;;;;5078941;28;20220;-87
2021/04/27 10:01:47;;;;;;;14.10;6.38;;;21.80;21.00;;;;;;5084410;28;20209;-88
2021/04/27 10:04:14;;;;;;;9.57;6.85;;;23.40;17.70;;;;;;5081834;28;20224;-86
2021/04/27 10:06:43;;;;;;;11.23;7.43;;;23.90;17.10;;;;;;5073537;28;20224;-86
2021/04/27 10:09:09;;;;;;;9.20;6.80;;;21.90;19.10;;;;;;5057666;28;20259;-88
2021/04/27 10:11:37;;;;;;;9.23;7.25;;;23.30;17.30;;;;;;5066143;28;20326;-87
2021/04/27 10:14:06;;;;;;;7.97;6.55;;;23.50;17.00;;;;;;5065292;28;20216;-88
2021/04/27 10:16:33;;;;;;;8.43;6.95;;;23.30;17.50;;;;;;5059946;28;20206;-87
2021/04/27 10:19:06;;;;;;;10.77;7.32;;;23.70;17.00;;;;;;5059648;28;20698;-84
2021/04/27 10:21:33;;;;;;;8.73;6.57;;;23.80;16.90;;;;;;5063711;28;20287;-88
2021/04/27 10:24:03;;;;;;;7.53;6.82;;;23.80;17.10;;;;;;5077328;28;20280;-86
2021/04/27 10:26:37;;;;;;;11.68;7.03;;;24.10;16.40;;;;;;5077184;28;20282;-85
2021/04/27 10:29:07;;;;;;;8.88;7.95;;;23.70;16.70;;;;;;5076016;28;20220;-85
2021/04/27 10:31:35;;;;;;;9.60;6.78;;;24.10;16.70;;;;;;5066039;28;20197;-85
2021/04/27 10:34:06;;;;;;;7.57;6.88;;;23.90;16.90;;;;;;5070459;28;20217;-85
2021/04/27 10:37:07;;;;;;;9.00;7.28;;;23.10;17.50;;;;;;5071784;28;20293;-82
2021/04/27 10:39:39;;;;;;;12.05;7.13;;;22.40;18.40;;;;;;5080440;28;20223;-82
2021/04/27 10:46:14;;;;;;;9.32;6.95;;;22.60;18.50;;;;;;5086439;28;20197;-82
2021/04/27 10:55:35;;;;;;;13.52;7.15;;;22.40;18.70;;;;;;5075257;28;20181;-86
2021/04/27 10:58:04;;;;;;;11.50;7.35;;;22.50;18.70;;;;;;5073040;28;20274;-83
2021/04/27 11:00:39;;;;;;;9.95;7.38;;;22.70;18.60;;;;;;5069327;28;20208;-82
2021/04/27 11:03:12;;;;;;;8.77;7.07;;;22.80;18.20;;;;;;5066964;28;20217;-84
2021/04/27 11:05:51;;;;;;;11.48;7.70;;;21.60;19.20;;;;;;5071367;28;20572;-85
2021/04/27 11:08:20;;;;;;;13.10;7.68;;;20.80;21.50;;;;;;5073196;28;20232;-85
2021/04/27 11:10:50;;;;;;;10.63;7.35;;;20.30;23.00;;;;;;5074414;28;20707;-86
2021/04/27 11:13:17;;;;;;;8.95;7.47;;;18.60;24.40;;;;;;5071908;28;20225;-85
2021/04/27 11:15:45;;;;;;;10.98;7.30;;;18.70;25.40;;;;;;5073316;28;20229;-83
2021/04/27 11:18:17;;;;;;;12.77;7.22;;;18.80;25.70;;;;;;5076231;28;20283;-86
2021/04/27 11:21:24;;;;;;;10.07;7.53;;;18.90;24.40;;;;;;5081431;28;20346;-84
2021/04/27 11:23:53;;;;;;;11.15;7.20;;;18.60;25.70;;;;;;5074499;28;20707;-86
2021/04/27 11:26:57;;;;;;;12.73;7.40;;;18.20;25.80;;;;;;5077761;28;20272;-85
2021/04/27 11:29:29;;;;;;;13.68;7.68;;;18.10;26.60;;;;;;5064756;28;20243;-86
2021/04/27 11:32:14;;;;;;;11.38;8.43;;;18.10;26.20;;;;;;5071118;28;20186;-86
2021/04/27 11:35:15;;;;;;;19.65;8.45;;;17.80;27.30;;;;;;5065996;28;20699;-85
2021/04/27 11:37:44;;;;;;;10.13;7.63;;;17.70;27.80;;;;;;5058980;28;20751;-88
2021/04/27 11:40:20;;;;;;;9.95;8.07;;;17.80;26.30;;;;;;5061836;28;20657;-85
2021/04/27 11:42:58;;;;;;;10.98;7.80;;;17.70;28.00;;;;;;5075110;28;20224;-85
2021/04/27 11:45:29;;;;;;;13.80;7.57;;;17.60;27.20;;;;;;5075754;28;20201;-85
2021/04/27 11:47:56;;;;;;;9.13;7.63;;;17.70;27.70;;;;;;5075275;28;20261;-84
2021/04/27 11:50:24;;;;;;;9.95;7.53;;;17.10;29.60;;;;;;5081275;28;20251;-85
2021/04/27 11:53:03;;;;;;;10.27;8.18;;;17.40;29.90;;;;;;5089919;28;20228;-84
2021/04/27 11:55:38;;;;;;;11.98;8.73;;;17.30;29.80;;;;;;5100815;28;20189;-85
2021/04/27 11:58:11;;;;;;;8.63;7.80;;;17.30;29.80;;;;;;5095805;28;20231;-84
2021/04/27 12:00:45;;;;;;;12.85;7.88;;;17.30;29.40;;;;;;5103023;28;20230;-85
2021/04/27 12:03:23;;;;;;;10.18;7.90;;;17.30;28.70;;;;;;5102539;28;20229;-84
2021/04/27 12:05:51;;;;;;;10.88;8.23;;;17.40;28.40;;;;;;5089701;28;20213;-84
2021/04/27 12:08:20;;;;;;;14.05;8.38;;;17.20;29.30;;;;;;5087921;28;20742;-84
2021/04/27 12:10:48;;;;;;;13.07;8.02;;;17.20;29.60;;;;;;5084785;28;20213;-84
2021/04/27 12:13:22;;;;;;;11.30;8.48;;;17.10;29.60;;;;;;5084879;28;20281;-84
2021/04/27 12:19:17;;;;;;;9.82;8.10;;;17.10;29.60;;;;;;5083767;28;20290;-84
2021/04/27 12:22:07;;;;;;;11.57;8.35;;;17.10;29.70;;;;;;5087100;28;20193;-84
2021/04/27 12:37:11;;;;;;;9.73;8.38;;;16.70;29.30;;;;;;5088578;28;20176;-85
2021/04/27 14:22:01;;;;;;;10.20;7.53;;;16.90;29.30;;;;;;5248943;22;20239;-89
2021/04/27 14:24:28;;;;;;;9.43;7.07;;;16.90;29.50;;;;;;5080856;28;20244;-88
2021/04/27 14:26:54;;;;;;;11.20;7.00;;;16.80;29.40;;;;;;5089447;28;20217;-88
2021/04/27 14:29:21;;;;;;;15.27;7.97;;;16.80;29.40;;;;;;5085446;28;20635;-88
2021/04/27 14:31:47;;;;;;;12.50;6.88;;;16.40;29.00;;;;;;5090950;28;20207;-88
2021/04/27 14:34:14;;;;;;;10.57;7.50;;;16.50;29.10;;;;;;5072775;28;20282;-86
2021/04/27 14:36:56;;;;;;;8.60;7.70;;;16.70;29.30;;;;;;5075987;28;20228;-86
2021/04/27 14:39:23;;;;;;;12.15;8.18;;;16.80;29.40;;;;;;5064589;28;20222;-86
2021/04/27 14:41:50;;;;;;;11.02;7.22;;;16.80;29.40;;;;;;5080002;28;20221;-86
2021/04/27 14:44:18;;;;;;;10.05;7.70;;;16.80;29.40;;;;;;5083649;28;20220;-88
2021/04/27 14:46:59;;;;;;;13.77;7.32;;;16.90;29.50;;;;;;5085702;28;20208;-86
2021/04/27 14:49:25;;;;;;;9.65;7.38;;;17.00;29.50;;;;;;5095246;28;20243;-85
2021/04/27 14:52:10;;;;;;;10.73;7.28;;;16.90;29.50;;;;;;5086468;28;20231;-85
2021/04/27 14:54:37;;;;;;;12.52;7.40;;;16.80;29.40;;;;;;5083330;28;20217;-87
2021/04/27 14:57:04;;;;;;;9.10;7.45;;;16.80;29.40;;;;;;5082259;28;20200;-87
2021/04/27 14:59:31;;;;;;;8.77;7.03;;;16.90;29.50;;;;;;5079092;28;20213;-88
2021/04/27 15:01:57;;;;;;;10.48;7.38;;;16.80;29.40;;;;;;5079086;28;20272;-90
2021/04/27 15:18:40;;;;;;;11.93;7.22;;;16.80;29.30;;;;;;5089534;28;20189;-86
2021/04/27 15:21:56;;;;;;;9.75;6.95;;;16.90;29.50;;;;;;5081606;28;20235;-87
2021/04/27 15:24:23;;;;;;;8.98;6.45;;;16.80;29.40;;;;;;5084823;28;20224;-86
2021/04/27 15:27:01;;;;;;;10.05;7.38;;;16.70;29.30;;;;;;5066520;28;20256;-86
2021/04/27 15:47:08;;;;;;;10.18;6.57;;;16.60;29.20;;;;;;5065751;28;20181;-86
2021/04/27 15:59:59;;;;;;;12.38;7.05;;;16.50;29.10;;;;;;5093707;28;20284;-87
2021/04/27 16:02:25;;;;;;;11.05;6.97;;;16.40;29.00;;;;;;5083043;28;20753;-89
2021/04/27 16:04:52;;;;;;;9.25;6.35;;;16.40;29.00;;;;;;5067013;28;20194;-89
2021/04/27 16:07:19;;;;;;;8.88;6.55;;;16.40;29.00;;;;;;5065517;28;20225;-89
2021/04/27 16:09:45;;;;;;;11.57;6.80;;;16.40;29.00;;;;;;5078309;28;20594;-89
2021/04/27 16:12:15;;;;;;;10.02;6.75;;;16.40;29.00;;;;;;5081318;28;20191;-93
2021/04/27 16:14:42;;;;;;;9.60;6.30;;;16.40;29.00;;;;;;5063779;28;20367;-87
2021/04/27 16:17:10;;;;;;;16.40;6.57;;;16.30;29.00;;;;;;5061324;28;20194;-88
2021/04/27 16:19:36;;;;;;;11.77;6.30;;;16.30;29.00;;;;;;5075418;28;20197;-88
2021/04/27 16:22:08;;;;;;;9.70;6.85;;;16.30;29.00;;;;;;5068825;28;20205;-88